sensor_id;sensor_type;location;lat;lon;timestamp;pressure;altitude;pressure_sealevel;temperature;humidity
35551;BME280;21655;46.056;13.616;2023-01-10T00:01:16;99380.13;;;7.19;100.00
35551;BME280;21655;46.056;13.616;2023-01-10T00:03:41;99387.34;;;7.20;100.00
35551;BME280;21655;46.056;13.616;2023-01-10T00:06:06;99388.03;;;7.22;100.00
35551;BME280;21655;46.056;13.616;2023-01-10T00:08:32;99394.13;;;7.18;100.00
35551;BME280;21655;46.056;13.616;2023-01-10T00:10:57;99391.69;;;7.15;100.00
35551;BME280;21655;46.056;13.616;2023-01-10T00:13:22;99389.81;;;7.15;100.00
35551;BME280;21655;46.056;13.616;2023-01-10T00:15:53;99393.06;;;7.19;100.00
35551;BME280;21655;46.056;13.616;2023-01-10T00:18:19;99397.22;;;7.15;100.00
35551;BME280;21655;46.056;13.616;2023-01-10T00:20:46;99388.09;;;7.14;100.00
35551;BME280;21655;46.056;13.616;2023-01-10T00:23:12;99384.47;;;7.14;100.00
35551;BME280;21655;46.056;13.616;2023-01-10T00:25:38;99388.25;;;7.13;100.00
35551;BME280;21655;46.056;13.616;2023-01-10T00:28:04;99399.81;;;7.08;100.00
35551;BME280;21655;46.056;13.616;2023-01-10T00:30:53;99393.97;;;7.11;100.00
35551;BME280;21655;46.056;13.616;2023-01-10T00:33:19;99405.03;;;7.03;100.00
35551;BME280;21655;46.056;13.616;2023-01-10T00:35:46;99408.31;;;6.99;100.00
35551;BME280;21655;46.056;13.616;2023-01-10T00:38:12;99403.38;;;6.94;100.00
35551;BME280;21655;46.056;13.616;2023-01-10T00:40:38;99413.53;;;6.94;100.00
35551;BME280;21655;46.056;13.616;2023-01-10T00:43:04;99407.19;;;6.93;100.00
35551;BME280;21655;46.056;13.616;2023-01-10T00:45:48;99420.91;;;7.01;100.00
35551;BME280;21655;46.056;13.616;2023-01-10T00:48:14;99422.81;;;7.01;100.00
35551;BME280;21655;46.056;13.616;2023-01-10T00:50:39;99416.44;;;7.00;100.00
35551;BME280;21655;46.056;13.616;2023-01-10T00:53:05;99422.44;;;7.04;100.00
35551;BME280;21655;46.056;13.616;2023-01-10T00:55:31;99435.56;;;6.94;100.00
35551;BME280;21655;46.056;13.616;2023-01-10T00:57:57;99441.09;;;6.94;100.00
35551;BME280;21655;46.056;13.616;2023-01-10T01:00:23;99444.88;;;6.93;100.00
35551;BME280;21655;46.056;13.616;2023-01-10T01:02:48;99446.28;;;6.89;100.00
35551;BME280;21655;46.056;13.616;2023-01-10T01:05:16;99446.44;;;6.87;100.00
35551;BME280;21655;46.056;13.616;2023-01-10T01:07:41;99449.41;;;6.86;100.00
35551;BME280;21655;46.056;13.616;2023-01-10T01:10:07;99449.06;;;6.81;100.00
35551;BME280;21655;46.056;13.616;2023-01-10T01:12:52;99451.66;;;6.82;100.00
35551;BME280;21655;46.056;13.616;2023-01-10T01:15:17;99459.56;;;6.85;100.00
35551;BME280;21655;46.056;13.616;2023-01-10T01:17:43;99468.50;;;6.87;100.00
35551;BME280;21655;46.056;13.616;2023-01-10T01:20:09;99471.78;;;6.83;100.00
35551;BME280;21655;46.056;13.616;2023-01-10T01:22:35;99466.09;;;6.84;100.00
35551;BME280;21655;46.056;13.616;2023-01-10T01:25:02;99465.75;;;6.87;100.00
35551;BME280;21655;46.056;13.616;2023-01-10T01:27:29;99473.47;;;6.92;100.00
35551;BME280;21655;46.056;13.616;2023-01-10T01:29:54;99479.50;;;6.87;100.00
35551;BME280;21655;46.056;13.616;2023-01-10T01:32:19;99480.56;;;6.86;100.00
35551;BME280;21655;46.056;13.616;2023-01-10T01:34:46;99487.97;;;6.86;100.00
35551;BME280;21655;46.056;13.616;2023-01-10T01:37:11;99486.94;;;6.87;100.00
35551;BME280;21655;46.056;13.616;2023-01-10T01:39:36;99492.44;;;6.87;100.00
35551;BME280;21655;46.056;13.616;2023-01-10T01:42:03;99497.81;;;6.80;100.00
35551;BME280;21655;46.056;13.616;2023-01-10T01:44:34;99504.53;;;6.78;100.00
35551;BME280;21655;46.056;13.616;2023-01-10T01:47:04;99498.16;;;6.77;100.00
35551;BME280;21655;46.056;13.616;2023-01-10T01:49:31;99497.81;;;6.80;100.00
35551;BME280;21655;46.056;13.616;2023-01-10T01:52:02;99499.91;;;6.70;100.00
35551;BME280;21655;46.056;13.616;2023-01-10T01:54:31;99503.69;;;6.69;100.00
35551;BME280;21655;46.056;13.616;2023-01-10T01:57:06;99508.84;;;6.72;100.00
35551;BME280;21655;46.056;13.616;2023-01-10T01:59:42;99508.47;;;6.75;100.00
35551;BME280;21655;46.056;13.616;2023-01-10T02:02:33;99508.47;;;6.75;100.00
35551;BME280;21655;46.056;13.616;2023-01-10T02:05:11;99510.91;;;6.70;100.00
35551;BME280;21655;46.056;13.616;2023-01-10T02:07:40;99518.84;;;6.65;100.00
35551;BME280;21655;46.056;13.616;2023-01-10T02:10:28;99510.75;;;6.64;100.00
35551;BME280;21655;46.056;13.616;2023-01-10T02:13:00;99520.22;;;6.69;100.00
35551;BME280;21655;46.056;13.616;2023-01-10T02:15:27;99512.81;;;6.70;100.00
35551;BME280;21655;46.056;13.616;2023-01-10T02:17:53;99520.22;;;6.69;100.00
35551;BME280;21655;46.056;13.616;2023-01-10T02:20:20;99526.25;;;6.65;100.00
35551;BME280;21655;46.056;13.616;2023-01-10T02:32:04;99536.41;;;6.56;100.00
35551;BME280;21655;46.056;13.616;2023-01-10T02:39:59;99540.03;;;6.57;100.00
35551;BME280;21655;46.056;13.616;2023-01-10T02:45:32;99562.91;;;6.57;100.00
35551;BME280;21655;46.056;13.616;2023-01-10T02:47:55;99555.38;;;6.59;100.00
35551;BME280;21655;46.056;13.616;2023-01-10T02:53:12;99565.88;;;6.48;100.00
35551;BME280;21655;46.056;13.616;2023-01-10T02:56:09;99569.13;;;6.51;100.00
35551;BME280;21655;46.056;13.616;2023-01-10T03:01:36;99569.66;;;6.47;100.00
35551;BME280;21655;46.056;13.616;2023-01-10T03:10:26;99571.38;;;6.48;100.00
35551;BME280;21655;46.056;13.616;2023-01-10T03:12:50;99580.84;;;6.37;100.00
35551;BME280;21655;46.056;13.616;2023-01-10T03:15:23;99588.78;;;6.32;100.00
35551;BME280;21655;46.056;13.616;2023-01-10T03:17:52;99591.53;;;6.32;100.00
35551;BME280;21655;46.056;13.616;2023-01-10T03:20:21;99601.66;;;6.32;100.00
35551;BME280;21655;46.056;13.616;2023-01-10T03:22:47;99595.84;;;6.35;100.00
35551;BME280;21655;46.056;13.616;2023-01-10T03:25:15;99597.88;;;6.41;100.00
35551;BME280;21655;46.056;13.616;2023-01-10T03:27:59;99587.75;;;6.33;100.00
35551;BME280;21655;46.056;13.616;2023-01-10T03:33:00;99608.91;;;6.25;100.00
35551;BME280;21655;46.056;13.616;2023-01-10T03:38:44;99616.47;;;6.23;100.00
35551;BME280;21655;46.056;13.616;2023-01-10T03:47:08;99615.75;;;6.13;100.00
35551;BME280;21655;46.056;13.616;2023-01-10T03:49:38;99632.47;;;6.11;100.00
35551;BME280;21655;46.056;13.616;2023-01-10T03:52:07;99636.59;;;6.15;100.00
35551;BME280;21655;46.056;13.616;2023-01-10T03:54:35;99632.28;;;6.13;100.00
35551;BME280;21655;46.056;13.616;2023-01-10T03:57:00;99639.66;;;6.04;100.00
35551;BME280;21655;46.056;13.616;2023-01-10T03:59:27;99648.75;;;5.97;100.00
35551;BME280;21655;46.056;13.616;2023-01-10T04:01:54;99659.75;;;5.89;100.00
35551;BME280;21655;46.056;13.616;2023-01-10T04:04:20;99655.78;;;5.91;100.00
35551;BME280;21655;46.056;13.616;2023-01-10T04:06:46;99655.47;;;5.94;100.00
35551;BME280;21655;46.056;13.616;2023-01-10T04:09:11;99652.38;;;5.97;100.00
35551;BME280;21655;46.056;13.616;2023-01-10T04:11:37;99660.09;;;5.94;100.00
35551;BME280;21655;46.056;13.616;2023-01-10T04:14:03;99670.91;;;5.87;100.00
35551;BME280;21655;46.056;13.616;2023-01-10T04:16:28;99676.59;;;5.86;100.00
35551;BME280;21655;46.056;13.616;2023-01-10T04:18:54;99682.94;;;5.86;100.00
35551;BME280;21655;46.056;13.616;2023-01-10T04:21:19;99683.28;;;5.83;100.00
35551;BME280;21655;46.056;13.616;2023-01-10T04:23:45;99695.31;;;5.82;100.00
35551;BME280;21655;46.056;13.616;2023-01-10T04:26:10;99701.63;;;5.75;100.00
35551;BME280;21655;46.056;13.616;2023-01-10T04:28:36;99697.53;;;5.79;100.00
35551;BME280;21655;46.056;13.616;2023-01-10T04:31:01;99715.59;;;5.81;100.00
35551;BME280;21655;46.056;13.616;2023-01-10T04:33:27;99724.06;;;5.88;100.00
35551;BME280;21655;46.056;13.616;2023-01-10T04:35:52;99716.16;;;5.85;100.00
35551;BME280;21655;46.056;13.616;2023-01-10T04:38:18;99715.63;;;5.89;100.00
35551;BME280;21655;46.056;13.616;2023-01-10T04:40:43;99721.31;;;5.96;100.00
35551;BME280;21655;46.056;13.616;2023-01-10T04:43:09;99722.53;;;6.01;100.00
35551;BME280;21655;46.056;13.616;2023-01-10T04:45:36;99724.59;;;5.99;100.00
35551;BME280;21655;46.056;13.616;2023-01-10T04:48:02;99726.16;;;6.02;100.00
35551;BME280;21655;46.056;13.616;2023-01-10T04:50:28;99716.53;;;6.06;100.00
35551;BME280;21655;46.056;13.616;2023-01-10T04:52:53;99740.97;;;6.09;100.00
35551;BME280;21655;46.056;13.616;2023-01-10T04:55:19;99740.47;;;6.13;100.00
35551;BME280;21655;46.056;13.616;2023-01-10T04:57:44;99739.44;;;6.14;100.00
35551;BME280;21655;46.056;13.616;2023-01-10T05:00:11;99745.59;;;6.08;100.00
35551;BME280;21655;46.056;13.616;2023-01-10T05:02:37;99758.88;;;6.13;100.00
35551;BME280;21655;46.056;13.616;2023-01-10T05:05:12;99768.00;;;6.13;100.00
35551;BME280;21655;46.056;13.616;2023-01-10T05:07:39;99766.47;;;6.19;100.00
35551;BME280;21655;46.056;13.616;2023-01-10T05:10:06;99775.22;;;6.22;100.00
35551;BME280;21655;46.056;13.616;2023-01-10T05:12:31;99775.56;;;6.19;100.00
35551;BME280;21655;46.056;13.616;2023-01-10T05:14:57;99779.66;;;6.07;100.00
35551;BME280;21655;46.056;13.616;2023-01-10T05:17:22;99788.25;;;6.04;100.00
35551;BME280;21655;46.056;13.616;2023-01-10T05:19:47;99798.88;;;5.99;100.00
35551;BME280;21655;46.056;13.616;2023-01-10T05:22:13;99796.16;;;5.99;100.00
35551;BME280;21655;46.056;13.616;2023-01-10T05:24:38;99810.25;;;6.04;100.00
35551;BME280;21655;46.056;13.616;2023-01-10T05:27:04;99810.44;;;6.03;100.00
35551;BME280;21655;46.056;13.616;2023-01-10T05:29:29;99810.44;;;6.03;100.00
35551;BME280;21655;46.056;13.616;2023-01-10T05:31:54;99822.97;;;6.05;100.00
35551;BME280;21655;46.056;13.616;2023-01-10T05:34:20;99826.41;;;5.99;100.00
35551;BME280;21655;46.056;13.616;2023-01-10T05:36:46;99830.00;;;6.00;100.00
35551;BME280;21655;46.056;13.616;2023-01-10T05:39:11;99838.81;;;6.03;100.00
35551;BME280;21655;46.056;13.616;2023-01-10T05:41:38;99837.78;;;6.04;100.00
35551;BME280;21655;46.056;13.616;2023-01-10T05:44:04;99844.28;;;5.95;100.00
35551;BME280;21655;46.056;13.616;2023-01-10T05:46:30;99842.72;;;5.93;100.00
35551;BME280;21655;46.056;13.616;2023-01-10T05:48:55;99848.34;;;5.91;100.00
35551;BME280;21655;46.056;13.616;2023-01-10T05:51:20;99860.78;;;5.95;100.00
35551;BME280;21655;46.056;13.616;2023-01-10T05:53:46;99867.81;;;5.98;100.00
35551;BME280;21655;46.056;13.616;2023-01-10T05:56:11;99866.78;;;5.99;100.00
35551;BME280;21655;46.056;13.616;2023-01-10T05:58:37;99865.75;;;5.92;100.00
35551;BME280;21655;46.056;13.616;2023-01-10T06:01:02;99876.84;;;5.82;100.00
35551;BME280;21655;46.056;13.616;2023-01-10T06:03:28;99875.72;;;5.75;100.00
35551;BME280;21655;46.056;13.616;2023-01-10T06:05:54;99884.50;;;5.71;100.00
35551;BME280;21655;46.056;13.616;2023-01-10T06:08:19;99886.72;;;5.75;100.00
35551;BME280;21655;46.056;13.616;2023-01-10T06:10:45;99887.06;;;5.72;100.00
35551;BME280;21655;46.056;13.616;2023-01-10T06:13:10;99888.56;;;5.67;100.00
35551;BME280;21655;46.056;13.616;2023-01-10T06:15:37;99892.56;;;5.72;100.00
35551;BME280;21655;46.056;13.616;2023-01-10T06:18:02;99900.91;;;5.63;100.00
35551;BME280;21655;46.056;13.616;2023-01-10T06:20:28;99896.91;;;5.57;100.00
35551;BME280;21655;46.056;13.616;2023-01-10T06:22:53;99912.38;;;5.58;100.00
35551;BME280;21655;46.056;13.616;2023-01-10T06:25:19;99919.84;;;5.66;100.00
35551;BME280;21655;46.056;13.616;2023-01-10T06:27:44;99919.31;;;5.62;100.00
35551;BME280;21655;46.056;13.616;2023-01-10T06:30:11;99928.59;;;5.61;100.00
35551;BME280;21655;46.056;13.616;2023-01-10T06:32:37;99931.16;;;5.63;100.00
35551;BME280;21655;46.056;13.616;2023-01-10T06:35:03;99939.09;;;5.66;100.00
35551;BME280;21655;46.056;13.616;2023-01-10T06:37:29;99935.16;;;5.68;100.00
35551;BME280;21655;46.056;13.616;2023-01-10T06:39:55;99938.38;;;5.64;100.00
35551;BME280;21655;46.056;13.616;2023-01-10T06:42:20;99945.25;;;5.60;100.00
35551;BME280;21655;46.056;13.616;2023-01-10T06:44:45;99947.63;;;5.55;100.00
35551;BME280;21655;46.056;13.616;2023-01-10T06:47:11;99956.38;;;5.58;100.00
35551;BME280;21655;46.056;13.616;2023-01-10T06:49:36;99956.09;;;5.61;100.00
35551;BME280;21655;46.056;13.616;2023-01-10T06:52:01;99973.38;;;5.54;100.00
35551;BME280;21655;46.056;13.616;2023-01-10T06:54:27;99969.59;;;5.55;100.00
35551;BME280;21655;46.056;13.616;2023-01-10T06:56:52;99968.72;;;5.54;100.00
35551;BME280;21655;46.056;13.616;2023-01-10T06:59:18;99989.69;;;5.55;100.00
35551;BME280;21655;46.056;13.616;2023-01-10T07:01:43;100003.63;;;5.54;100.00
35551;BME280;21655;46.056;13.616;2023-01-10T07:04:08;99996.22;;;5.54;100.00
35551;BME280;21655;46.056;13.616;2023-01-10T07:06:38;99997.94;;;5.55;100.00
35551;BME280;21655;46.056;13.616;2023-01-10T07:09:04;100003.38;;;5.65;100.00
35551;BME280;21655;46.056;13.616;2023-01-10T07:11:31;100015.63;;;5.70;100.00
35551;BME280;21655;46.056;13.616;2023-01-10T07:13:56;100015.47;;;5.72;100.00
35551;BME280;21655;46.056;13.616;2023-01-10T07:16:21;100024.56;;;5.72;100.00
35551;BME280;21655;46.056;13.616;2023-01-10T07:18:47;100020.28;;;5.70;100.00
35551;BME280;21655;46.056;13.616;2023-01-10T07:21:12;100039.06;;;5.57;100.00
35551;BME280;21655;46.056;13.616;2023-01-10T07:23:38;100047.44;;;5.55;100.00
35551;BME280;21655;46.056;13.616;2023-01-10T07:26:05;100055.78;;;5.63;100.00
35551;BME280;21655;46.056;13.616;2023-01-10T07:28:32;100054.75;;;5.64;100.00
35551;BME280;21655;46.056;13.616;2023-01-10T07:31:00;100064.19;;;5.62;100.00
35551;BME280;21655;46.056;13.616;2023-01-10T07:33:26;100059.00;;;5.59;100.00
35551;BME280;21655;46.056;13.616;2023-01-10T07:35:52;100062.22;;;5.54;100.00
35551;BME280;21655;46.056;13.616;2023-01-10T07:38:17;100071.88;;;5.58;100.00
35551;BME280;21655;46.056;13.616;2023-01-10T07:40:43;100066.69;;;5.55;100.00
35551;BME280;21655;46.056;13.616;2023-01-10T07:43:08;100071.09;;;5.48;100.00
35551;BME280;21655;46.056;13.616;2023-01-10T07:45:34;100079.03;;;5.51;100.00
35551;BME280;21655;46.056;13.616;2023-01-10T07:48:02;100074.63;;;5.58;100.00
35551;BME280;21655;46.056;13.616;2023-01-10T07:50:30;100085.53;;;5.68;100.00
35551;BME280;21655;46.056;13.616;2023-01-10T07:52:57;100086.28;;;5.70;100.00
35551;BME280;21655;46.056;13.616;2023-01-10T07:55:23;100086.66;;;5.75;100.00
35551;BME280;21655;46.056;13.616;2023-01-10T07:57:49;100095.19;;;5.81;100.00
35551;BME280;21655;46.056;13.616;2023-01-10T08:00:15;100091.00;;;5.95;100.00
35551;BME280;21655;46.056;13.616;2023-01-10T08:02:40;100107.63;;;6.03;100.00
35551;BME280;21655;46.056;13.616;2023-01-10T08:05:06;100110.75;;;6.08;100.00
35551;BME280;21655;46.056;13.616;2023-01-10T08:07:31;100112.31;;;5.93;100.00
35551;BME280;21655;46.056;13.616;2023-01-10T08:09:57;100125.78;;;5.78;100.00
35551;BME280;21655;46.056;13.616;2023-01-10T08:12:23;100119.31;;;5.87;100.00
35551;BME280;21655;46.056;13.616;2023-01-10T08:14:49;100125.38;;;5.91;100.00
35551;BME280;21655;46.056;13.616;2023-01-10T08:17:15;100127.94;;;5.92;100.00
35551;BME280;21655;46.056;13.616;2023-01-10T08:19:40;100138.75;;;5.86;100.00
35551;BME280;21655;46.056;13.616;2023-01-10T08:22:05;100151.16;;;5.90;100.00
35551;BME280;21655;46.056;13.616;2023-01-10T08:24:31;100153.28;;;6.13;100.00
35551;BME280;21655;46.056;13.616;2023-01-10T08:26:57;100153.34;;;6.21;100.00
35551;BME280;21655;46.056;13.616;2023-01-10T08:29:23;100163.97;;;6.16;100.00
35551;BME280;21655;46.056;13.616;2023-01-10T08:31:48;100167.34;;;6.28;100.00
35551;BME280;21655;46.056;13.616;2023-01-10T08:34:13;100174.91;;;6.43;100.00
35551;BME280;21655;46.056;13.616;2023-01-10T08:36:39;100183.47;;;6.40;100.00
35551;BME280;21655;46.056;13.616;2023-01-10T08:39:04;100175.75;;;6.61;100.00
35551;BME280;21655;46.056;13.616;2023-01-10T08:41:30;100187.16;;;6.92;100.00
35551;BME280;21655;46.056;13.616;2023-01-10T08:43:55;100191.22;;;7.05;100.00
35551;BME280;21655;46.056;13.616;2023-01-10T08:46:21;100195.91;;;6.87;100.00
35551;BME280;21655;46.056;13.616;2023-01-10T08:48:46;100199.69;;;7.12;100.00
35551;BME280;21655;46.056;13.616;2023-01-10T08:51:14;100199.28;;;7.65;100.00
35551;BME280;21655;46.056;13.616;2023-01-10T08:53:40;100207.25;;;8.10;100.00
35551;BME280;21655;46.056;13.616;2023-01-10T08:56:06;100219.94;;;8.36;100.00
35551;BME280;21655;46.056;13.616;2023-01-10T08:58:31;100215.47;;;8.59;100.00
35551;BME280;21655;46.056;13.616;2023-01-10T09:00:57;100219.97;;;8.76;100.00
35551;BME280;21655;46.056;13.616;2023-01-10T09:03:22;100219.78;;;8.62;100.00
35551;BME280;21655;46.056;13.616;2023-01-10T09:05:48;100222.31;;;8.23;100.00
35551;BME280;21655;46.056;13.616;2023-01-10T09:08:13;100242.44;;;8.08;100.00
35551;BME280;21655;46.056;13.616;2023-01-10T09:10:39;100241.50;;;7.91;100.00
35551;BME280;21655;46.056;13.616;2023-01-10T09:13:05;100244.34;;;7.74;100.00
35551;BME280;21655;46.056;13.616;2023-01-10T09:15:32;100231.56;;;8.14;100.00
35551;BME280;21655;46.056;13.616;2023-01-10T09:18:01;100241.91;;;8.62;100.00
35551;BME280;21655;46.056;13.616;2023-01-10T09:20:28;100243.09;;;8.59;100.00
35551;BME280;21655;46.056;13.616;2023-01-10T09:22:54;100249.31;;;8.61;100.00
35551;BME280;21655;46.056;13.616;2023-01-10T09:25:21;100252.28;;;8.76;100.00
35551;BME280;21655;46.056;13.616;2023-01-10T09:27:46;100248.13;;;8.96;100.00
35551;BME280;21655;46.056;13.616;2023-01-10T09:30:12;100261.06;;;9.43;100.00
35551;BME280;21655;46.056;13.616;2023-01-10T09:32:37;100274.06;;;9.11;100.00
35551;BME280;21655;46.056;13.616;2023-01-10T09:35:03;100279.59;;;8.79;100.00
35551;BME280;21655;46.056;13.616;2023-01-10T09:37:29;100286.22;;;9.80;100.00
35551;BME280;21655;46.056;13.616;2023-01-10T09:39:54;100281.47;;;10.12;100.00
35551;BME280;21655;46.056;13.616;2023-01-10T09:48:01;100276.56;;;12.87;100.00
35551;BME280;21655;46.056;13.616;2023-01-10T09:50:48;100279.25;;;13.37;100.00
35551;BME280;21655;46.056;13.616;2023-01-10T09:53:23;100243.88;;;17.60;100.00
35551;BME280;21655;46.056;13.616;2023-01-10T09:55:53;100252.72;;;19.84;100.00
35551;BME280;21655;46.056;13.616;2023-01-10T09:58:23;100252.41;;;21.68;80.43
35551;BME280;21655;46.056;13.616;2023-01-10T10:00:55;100257.78;;;22.35;70.65
35551;BME280;21655;46.056;13.616;2023-01-10T10:06:12;100263.00;;;24.30;57.69
35551;BME280;21655;46.056;13.616;2023-01-10T10:08:39;100257.31;;;23.19;56.44
35551;BME280;21655;46.056;13.616;2023-01-10T10:11:42;100258.88;;;20.62;67.75
35551;BME280;21655;46.056;13.616;2023-01-10T10:31:06;100260.69;;;22.24;61.11
35551;BME280;21655;46.056;13.616;2023-01-10T10:36:55;100241.81;;;23.05;58.62
35551;BME280;21655;46.056;13.616;2023-01-10T10:39:41;100243.25;;;23.77;54.50
35551;BME280;21655;46.056;13.616;2023-01-10T10:42:12;100246.00;;;23.72;54.71
35551;BME280;21655;46.056;13.616;2023-01-10T10:44:44;100250.88;;;23.23;53.77
35551;BME280;21655;46.056;13.616;2023-01-10T10:47:18;100247.06;;;21.71;60.08
35551;BME280;21655;46.056;13.616;2023-01-10T10:50:17;100254.44;;;21.72;62.58
35551;BME280;21655;46.056;13.616;2023-01-10T10:52:45;100256.56;;;21.37;62.62
35551;BME280;21655;46.056;13.616;2023-01-10T10:55:13;100244.34;;;22.26;63.54
35551;BME280;21655;46.056;13.616;2023-01-10T10:57:40;100245.91;;;22.00;64.21
35551;BME280;21655;46.056;13.616;2023-01-10T11:00:07;100248.53;;;22.99;58.96
35551;BME280;21655;46.056;13.616;2023-01-10T11:02:42;100249.66;;;22.77;58.65
35551;BME280;21655;46.056;13.616;2023-01-10T11:05:20;100256.06;;;21.68;62.20
35551;BME280;21655;46.056;13.616;2023-01-10T11:07:46;100256.31;;;21.39;63.42
35551;BME280;21655;46.056;13.616;2023-01-10T11:10:18;100260.19;;;21.94;63.42
35551;BME280;21655;46.056;13.616;2023-01-10T11:12:46;100252.47;;;22.22;73.82
35551;BME280;21655;46.056;13.616;2023-01-10T11:18:09;100262.41;;;23.70;58.34
35551;BME280;21655;46.056;13.616;2023-01-10T11:20:35;100249.00;;;22.70;60.90
35551;BME280;21655;46.056;13.616;2023-01-10T11:23:02;100254.88;;;21.81;62.17
35551;BME280;21655;46.056;13.616;2023-01-10T11:25:28;100269.28;;;22.45;60.88
35551;BME280;21655;46.056;13.616;2023-01-10T11:27:58;100261.34;;;23.23;60.45
35551;BME280;21655;46.056;13.616;2023-01-10T11:30:30;100258.09;;;23.62;55.63
35551;BME280;21655;46.056;13.616;2023-01-10T11:33:06;100255.94;;;23.21;57.95
35551;BME280;21655;46.056;13.616;2023-01-10T11:35:33;100257.19;;;22.50;58.54
35551;BME280;21655;46.056;13.616;2023-01-10T11:38:20;100255.50;;;21.27;62.91
35551;BME280;21655;46.056;13.616;2023-01-10T11:41:01;100260.34;;;21.15;63.47
35551;BME280;21655;46.056;13.616;2023-01-10T11:46:12;100261.44;;;22.52;56.65
35551;BME280;21655;46.056;13.616;2023-01-10T11:48:43;100252.69;;;22.92;54.88
35551;BME280;21655;46.056;13.616;2023-01-10T11:51:36;100248.53;;;23.95;53.43
35551;BME280;21655;46.056;13.616;2023-01-10T11:54:06;100260.41;;;24.55;52.64
35551;BME280;21655;46.056;13.616;2023-01-10T11:56:36;100251.88;;;24.23;52.69
35551;BME280;21655;46.056;13.616;2023-01-10T11:59:13;100250.44;;;24.52;51.13
35551;BME280;21655;46.056;13.616;2023-01-10T12:01:42;100258.00;;;24.10;51.41
35551;BME280;21655;46.056;13.616;2023-01-10T12:04:18;100258.84;;;23.53;51.25
35551;BME280;21655;46.056;13.616;2023-01-10T12:06:50;100265.47;;;24.21;49.71
35551;BME280;21655;46.056;13.616;2023-01-10T12:09:36;100266.38;;;25.09;47.43
35551;BME280;21655;46.056;13.616;2023-01-10T12:14:40;100269.69;;;24.50;44.28
35551;BME280;21655;46.056;13.616;2023-01-10T12:17:11;100264.66;;;25.08;47.76
35551;BME280;21655;46.056;13.616;2023-01-10T12:19:42;100264.19;;;25.26;45.18
35551;BME280;21655;46.056;13.616;2023-01-10T12:22:12;100261.47;;;25.56;45.74
35551;BME280;21655;46.056;13.616;2023-01-10T12:24:42;100266.00;;;25.62;43.11
35551;BME280;21655;46.056;13.616;2023-01-10T12:27:14;100273.28;;;25.28;43.43
35551;BME280;21655;46.056;13.616;2023-01-10T12:29:55;100270.31;;;23.68;44.87
35551;BME280;21655;46.056;13.616;2023-01-10T12:32:30;100283.38;;;23.21;46.32
35551;BME280;21655;46.056;13.616;2023-01-10T12:35:04;100278.59;;;22.29;47.47
35551;BME280;21655;46.056;13.616;2023-01-10T12:37:36;100284.63;;;21.44;50.36
35551;BME280;21655;46.056;13.616;2023-01-10T12:42:52;100279.69;;;20.84;53.13
35551;BME280;21655;46.056;13.616;2023-01-10T12:45:50;100280.03;;;20.99;55.99
35551;BME280;21655;46.056;13.616;2023-01-10T12:48:32;100278.16;;;22.21;56.58
35551;BME280;21655;46.056;13.616;2023-01-10T12:51:06;100272.50;;;23.34;48.90
35551;BME280;21655;46.056;13.616;2023-01-10T12:53:43;100282.81;;;22.81;47.25
35551;BME280;21655;46.056;13.616;2023-01-10T12:56:12;100285.19;;;23.80;45.95
35551;BME280;21655;46.056;13.616;2023-01-10T12:58:49;100279.53;;;23.10;47.75
35551;BME280;21655;46.056;13.616;2023-01-10T13:01:23;100281.09;;;21.65;48.11
35551;BME280;21655;46.056;13.616;2023-01-10T13:04:03;100293.47;;;21.75;51.28
35551;BME280;21655;46.056;13.616;2023-01-10T13:06:35;100297.59;;;21.28;52.79
35551;BME280;21655;46.056;13.616;2023-01-10T13:09:07;100299.91;;;21.59;55.11
35551;BME280;21655;46.056;13.616;2023-01-10T13:11:43;100319.75;;;21.36;52.95
35551;BME280;21655;46.056;13.616;2023-01-10T13:14:13;100318.44;;;21.27;51.97
35551;BME280;21655;46.056;13.616;2023-01-10T13:16:54;100329.13;;;21.53;50.27
35551;BME280;21655;46.056;13.616;2023-01-10T13:19:24;100343.06;;;21.32;50.18
35551;BME280;21655;46.056;13.616;2023-01-10T13:22:19;100330.16;;;22.53;49.73
35551;BME280;21655;46.056;13.616;2023-01-10T13:24:55;100324.78;;;23.27;46.27
35551;BME280;21655;46.056;13.616;2023-01-10T13:27:22;100328.84;;;23.14;47.71
35551;BME280;21655;46.056;13.616;2023-01-10T13:29:48;100319.38;;;23.47;48.61
35551;BME280;21655;46.056;13.616;2023-01-10T13:32:24;100320.25;;;23.74;47.30
35551;BME280;21655;46.056;13.616;2023-01-10T13:34:51;100321.66;;;24.56;47.69
35551;BME280;21655;46.056;13.616;2023-01-10T13:37:22;100330.97;;;23.07;49.40
35551;BME280;21655;46.056;13.616;2023-01-10T13:39:54;100331.44;;;21.68;52.34
35551;BME280;21655;46.056;13.616;2023-01-10T14:03:40;100346.59;;;21.78;53.58
35551;BME280;21655;46.056;13.616;2023-01-10T14:14:38;100374.59;;;20.14;63.11
35551;BME280;21655;46.056;13.616;2023-01-10T14:17:25;100376.31;;;19.45;65.07
35551;BME280;21655;46.056;13.616;2023-01-10T14:20:02;100374.41;;;19.86;64.14
35551;BME280;21655;46.056;13.616;2023-01-10T14:22:30;100368.28;;;19.89;66.05
35551;BME280;21655;46.056;13.616;2023-01-10T14:24:59;100363.84;;;18.45;86.43
35551;BME280;21655;46.056;13.616;2023-01-10T14:27:32;100372.09;;;17.53;100.00
35551;BME280;21655;46.056;13.616;2023-01-10T14:30:00;100377.47;;;17.55;100.00
35551;BME280;21655;46.056;13.616;2023-01-10T14:32:30;100386.41;;;17.32;100.00
35551;BME280;21655;46.056;13.616;2023-01-10T14:35:00;100378.84;;;16.83;100.00
35551;BME280;21655;46.056;13.616;2023-01-10T14:37:30;100390.72;;;16.65;100.00
35551;BME280;21655;46.056;13.616;2023-01-10T14:39:59;100385.50;;;16.88;100.00
35551;BME280;21655;46.056;13.616;2023-01-10T14:42:26;100394.59;;;16.71;100.00
35551;BME280;21655;46.056;13.616;2023-01-10T14:45:18;100393.72;;;15.00;100.00